AirNav  
 
Fuel
  

2T4 Hayesport Airport
Collinsville, Texas, USA

GOING TO COLLINSVILLE?

Reserve a HOTEL

FAA INFORMATION EFFECTIVE 15 MAY 2003

Location

FAA Identifier: 2T4
Lat/Long: 33-32-36.397N / 096-58-31.020W
33-32.60662N / 096-58.51700W
33.5434436 / -96.9752833
(estimated)
Elevation: 723 ft. / 220 m (estimated)
Variation: 07E (1985)
From city: 3 miles W of COLLINSVILLE, TX

Airport Operations

Airport use: Open to the public
Activation date: 03/1991
Sectional chart: DALLAS-FT WORTH BUY IT NOW
Control tower: no
ARTCC: FORT WORTH CENTER
FSS: FORT WORTH FLIGHT SERVICE STATION [1-800-WX-BRIEF]
NOTAMs facility: FTW (NOTAM-D service available)
Attendance: UNATNDD
Wind indicator: yes
Segmented circle: no
Beacon: unknown

Airport Communications

CTAF: 122.9
WX AWOS-3 at GLE (13 nm NW): 118.375 (940-612-3549)
WX AWOS-3 at GYI (18 nm NE): 118.775 (903-786-7790)

Nearby radio navigation aids

VOR radial/distance  VOR name  Freq  Var
BYPr265/37.1BONHAM VORTAC114.6006E
URHr225/37.8TEXOMA VOR/DME114.3005E
CVEr349/39.4COWBOY VOR/DME116.2006E

 
NDB name  Hdg/Dist  Freq  Var  ID
GAINESVILLE127/15.333006EGLE --. .-.. .
DENISON216/22.734106EDNI -.. -. ..
ARBUCKLE161/37.228407EAUV .- ..- ...-
DURANT224/37.435906EDUA -.. ..- .-

Airport Services

Airframe service: MINOR
Powerplant service: MINOR

Runway Information

Runway 18/36

Dimensions: 2800 x 70 ft. / 853 x 21 m
Surface: turf
RUNWAY 18  RUNWAY 36
Traffic pattern: leftleft
Obstructions: 4 ft. fence, 10 ft. from runway, 2:1 slope to clear10 ft. brush, 10 ft. from runway, 40 ft. left of centerline, 1:1 slope to clear

Airport Operational Statistics

Aircraft based on the field: 7
Single engine airplanes: 7
    
Aircraft operations: 50/year
100% transient general aviation
 
Loc | Ops | Rwys | Biz | Links
Com | Nav | Svcs | Stats | Notes
 
Area around 2T4 (Hayesport Airport)
 
Aerial photo of 2T4 (Hayesport Airport)
 
Sunrise and sunset
Times for 10-Jun-2003
 Local
(UTC-5)
 Zulu
(UTC)
Morning civil twilight05:4910:49
Sunrise06:1811:18
Sunset20:3601:36
Evening civil twilight21:0502:05
 
METAR
KGLE 101225Z AUTO 16007KT 1 1/4SM BR 23/22 A2988
KDTO 101153Z AUTO 15007KT 10SM CLR 24/22 A2986 RMK AO2 SLP100 T02440222 10250 20233 53006 $
TAF
KDFW 101128Z 101212 19014KT P6SM SCT015 BKN080 OVC250
TEMPO 1214 BKN015
FM1500 19015G24KT P6SM SCT080 BKN250
FM1900 19015G25KT P6SM SCT040 BKN080 PROB30 2202 5SM -TSRA BR BKN030CB
FM0400 18013KT P6SM BKN250
FM0800 16012KT P6SM BKN080 OVC250
KDAL 101128Z 101212 19014KT P6SM SCT015 BKN080 OVC250
TEMPO 1214 BKN015
FM1500 19015G24KT P6SM SCT080 BKN250
FM1900 19015G25KT P6SM SCT040 BKN080 PROB30 2202 5SM -TSRA BR BKN030CB
FM0400 18013KT P6SM BKN250
FM0800 16012KT P6SM BKN080 OVC250
KFTW 101128Z 101212 19014KT P6SM SCT015 BKN080 OVC250
TEMPO 1214 BKN015
FM1500 19015G24KT P6SM SCT080 BKN250
FM1900 19015G25KT P6SM SCT040 BKN080 PROB30 2202 5SM -TSRA BR BKN030CB
FM0400 18013KT P6SM BKN250
FM0800 16012KT P6SM BKN080 OVC250

Businesses, Services and Facilities On or Near Hayesport Airport

Business NameContactServicesComments
Hayesport Aircraft Services [email] maintenance, parts, restrooms    add
Add a business

Other Pages about Hayesport Airport

Add a link
 
Copyright © AirNav, LLC. All rights reserved. Privacy Policy (Updated 24-May-2003)  Contact